Time;durP1;ratioP1;P1;durP2;ratioP2;P2;SDS_P1;SDS_P2;PMS_P1;PMS_P2;Temp;Humidity;BMP_temperature;BMP_pressure;BME280_temperature;BME280_humidity;BME280_pressure;Samples;Min_cycle;Max_cycle;Signal;HPM_P1;HPM_P2
2022/03/30 00:01:09;;;;;;;1.50;1.10;;;10.30;88.50;;;;;;5088333;28;20477;-77
2022/03/30 00:03:37;;;;;;;1.50;1.30;;;10.30;88.50;;;;;;5075844;28;20876;-77
2022/03/30 00:06:05;;;;;;;1.50;1.20;;;10.30;88.50;;;;;;5083248;28;20496;-77
2022/03/30 00:08:32;;;;;;;1.50;1.10;;;10.30;88.60;;;;;;5079914;28;20488;-76
2022/03/30 00:11:00;;;;;;;1.50;1.30;;;10.30;88.50;;;;;;5071062;28;20987;-77
2022/03/30 00:13:28;;;;;;;1.50;1.10;;;10.30;88.50;;;;;;5083606;28;20467;-76
2022/03/30 00:15:54;;;;;;;1.50;1.20;;;10.30;88.60;;;;;;5089947;28;20468;-77
2022/03/30 00:18:23;;;;;;;1.50;1.10;;;10.30;88.70;;;;;;5082291;28;21023;-77
2022/03/30 00:20:50;;;;;;;1.50;1.10;;;10.30;88.80;;;;;;5070903;28;20523;-77
2022/03/30 00:23:20;;;;;;;1.50;1.10;;;10.30;89.00;;;;;;5083740;28;20467;-74
2022/03/30 00:25:47;;;;;;;1.50;1.10;;;10.30;89.00;;;;;;5090545;28;20746;-75
2022/03/30 00:28:14;;;;;;;1.50;1.10;;;10.30;89.00;;;;;;5072227;28;20489;-74
2022/03/30 00:30:41;;;;;;;1.50;1.10;;;10.30;89.00;;;;;;5076706;28;20465;-77
2022/03/30 00:33:09;;;;;;;1.50;1.20;;;10.30;88.90;;;;;;5079756;28;20468;-76
2022/03/30 00:35:37;;;;;;;1.50;1.10;;;10.30;89.00;;;;;;5080392;28;20464;-77
2022/03/30 00:38:05;;;;;;;1.50;1.10;;;10.20;89.10;;;;;;5080285;28;20483;-77
2022/03/30 00:40:34;;;;;;;1.50;1.10;;;10.20;89.30;;;;;;5074977;28;20468;-77
2022/03/30 00:43:01;;;;;;;1.50;1.20;;;10.20;89.40;;;;;;5074185;28;20485;-76
2022/03/30 00:45:29;;;;;;;1.50;1.10;;;10.20;89.30;;;;;;5077333;28;20496;-77
2022/03/30 00:47:56;;;;;;;1.50;1.10;;;10.20;89.70;;;;;;5073672;28;20491;-77
2022/03/30 00:50:24;;;;;;;1.50;1.20;;;10.30;89.70;;;;;;5074877;28;20462;-77
2022/03/30 00:52:57;;;;;;;1.50;1.20;;;10.30;90.20;;;;;;5071237;28;20462;-77
2022/03/30 00:55:24;;;;;;;1.50;1.10;;;10.30;90.40;;;;;;5069657;28;20520;-76
2022/03/30 00:57:53;;;;;;;1.50;1.10;;;10.30;90.70;;;;;;5071928;28;20651;-76
2022/03/30 01:00:20;;;;;;;1.50;1.00;;;10.30;91.20;;;;;;5074275;28;20461;-76
2022/03/30 01:02:49;;;;;;;1.50;1.10;;;10.20;91.60;;;;;;5074914;28;20469;-75
2022/03/30 01:05:17;;;;;;;1.50;1.10;;;10.20;92.20;;;;;;5083435;28;20543;-75
2022/03/30 01:07:45;;;;;;;1.47;1.10;;;10.10;92.90;;;;;;5078014;28;20496;-75
2022/03/30 01:10:14;;;;;;;1.50;1.10;;;10.10;92.80;;;;;;5073810;28;20461;-75
2022/03/30 01:12:41;;;;;;;1.50;1.10;;;10.00;92.90;;;;;;5077748;28;20461;-75
2022/03/30 01:15:12;;;;;;;1.50;1.20;;;10.00;93.20;;;;;;5089329;28;20993;-75
2022/03/30 01:17:40;;;;;;;1.50;1.10;;;9.90;93.50;;;;;;5077893;28;20838;-74
2022/03/30 01:20:08;;;;;;;1.60;1.30;;;9.90;93.60;;;;;;5068801;28;20855;-74
2022/03/30 01:22:36;;;;;;;1.47;1.10;;;9.80;93.20;;;;;;5075006;28;20464;-75
2022/03/30 01:25:04;;;;;;;1.50;1.10;;;9.80;93.00;;;;;;5069448;28;20861;-75
2022/03/30 01:27:30;;;;;;;1.50;1.10;;;9.80;93.40;;;;;;5074130;28;20473;-74
2022/03/30 01:32:42;;;;;;;1.50;1.20;;;9.70;92.60;;;;;;5071786;28;20436;-74
2022/03/30 01:35:11;;;;;;;1.50;1.10;;;9.70;93.20;;;;;;5073214;28;20457;-74
2022/03/30 01:37:39;;;;;;;1.60;1.40;;;9.70;92.90;;;;;;5083720;28;20479;-74
2022/03/30 01:40:07;;;;;;;1.50;1.20;;;9.60;93.20;;;;;;5075483;28;20864;-73
2022/03/30 01:42:34;;;;;;;2.17;1.97;;;9.60;94.20;;;;;;5077391;28;20457;-74
2022/03/30 01:45:02;;;;;;;1.50;1.20;;;9.50;94.70;;;;;;5076473;28;20461;-74
2022/03/30 01:47:28;;;;;;;1.50;1.10;;;9.50;95.00;;;;;;5074981;28;20453;-74
2022/03/30 01:49:55;;;;;;;1.50;1.10;;;9.50;94.20;;;;;;5085937;28;20456;-74
2022/03/30 01:52:22;;;;;;;1.50;1.03;;;9.40;94.30;;;;;;5074027;28;20464;-74
2022/03/30 01:54:51;;;;;;;1.50;1.10;;;9.40;94.80;;;;;;5074204;28;20452;-74
2022/03/30 01:57:18;;;;;;;1.70;1.60;;;9.40;94.40;;;;;;5082068;28;20476;-75
2022/03/30 01:59:48;;;;;;;1.50;1.10;;;9.40;95.30;;;;;;5075905;28;20460;-75
2022/03/30 02:02:15;;;;;;;1.60;1.20;;;9.40;95.10;;;;;;5082378;28;20893;-75
2022/03/30 02:04:43;;;;;;;1.50;1.20;;;9.40;95.10;;;;;;5081537;28;20830;-75
2022/03/30 02:07:11;;;;;;;1.50;1.10;;;9.40;94.60;;;;;;5077125;28;20437;-75
2022/03/30 02:09:38;;;;;;;1.50;1.20;;;9.40;94.30;;;;;;5072765;28;20496;-76
2022/03/30 02:12:08;;;;;;;1.50;1.10;;;9.40;94.30;;;;;;5071720;28;20461;-75
2022/03/30 02:14:35;;;;;;;1.50;1.10;;;9.40;94.60;;;;;;5084829;28;20457;-75
2022/03/30 02:17:02;;;;;;;1.50;1.20;;;9.40;94.30;;;;;;5081552;28;20472;-75
2022/03/30 02:19:30;;;;;;;1.50;1.10;;;9.40;94.80;;;;;;5075351;28;20496;-75
2022/03/30 02:21:57;;;;;;;1.50;1.20;;;9.40;94.10;;;;;;5074239;28;20480;-75
2022/03/30 02:24:24;;;;;;;1.50;1.30;;;9.40;93.60;;;;;;5074410;28;20803;-76
2022/03/30 02:26:53;;;;;;;1.50;1.10;;;9.30;93.90;;;;;;5073950;28;20469;-76
2022/03/30 02:29:23;;;;;;;1.50;1.10;;;9.30;93.70;;;;;;5078786;28;20537;-76
2022/03/30 02:31:50;;;;;;;1.50;1.20;;;9.20;94.00;;;;;;5080535;28;20537;-76
2022/03/30 02:34:17;;;;;;;1.50;1.10;;;9.20;94.10;;;;;;5081904;28;20456;-75
2022/03/30 02:36:45;;;;;;;1.50;1.10;;;9.20;93.80;;;;;;5082501;28;20475;-76
2022/03/30 02:39:14;;;;;;;1.50;1.17;;;9.20;94.30;;;;;;5080112;28;20517;-76
2022/03/30 02:41:42;;;;;;;1.50;1.17;;;9.20;94.50;;;;;;5087199;28;20456;-76
2022/03/30 02:44:09;;;;;;;1.50;1.10;;;9.20;94.30;;;;;;5075390;28;20461;-76
2022/03/30 02:46:37;;;;;;;1.50;1.10;;;9.20;94.50;;;;;;5087130;28;20460;-76
2022/03/30 02:49:04;;;;;;;1.50;1.10;;;9.10;94.10;;;;;;5107986;22;20484;-76
2022/03/30 02:51:31;;;;;;;1.50;1.10;;;9.10;94.00;;;;;;5096452;28;20479;-77
2022/03/30 02:53:58;;;;;;;2.33;2.13;;;9.10;94.50;;;;;;5079678;28;20461;-78
2022/03/30 02:56:24;;;;;;;1.50;1.10;;;9.10;94.40;;;;;;5077961;28;20462;-77
2022/03/30 02:58:51;;;;;;;1.50;1.30;;;9.10;94.80;;;;;;5078513;28;20483;-77
2022/03/30 03:01:18;;;;;;;1.50;1.10;;;9.10;94.30;;;;;;5076835;28;20931;-78
2022/03/30 03:03:46;;;;;;;1.50;1.10;;;9.10;94.30;;;;;;5080779;28;21101;-78
2022/03/30 03:06:13;;;;;;;1.50;1.10;;;9.00;94.00;;;;;;5097818;28;20467;-78
2022/03/30 03:08:40;;;;;;;1.53;1.30;;;9.00;93.80;;;;;;5078539;28;21067;-78
2022/03/30 03:11:07;;;;;;;1.50;1.20;;;9.00;93.90;;;;;;5086988;28;20469;-77
2022/03/30 03:13:33;;;;;;;1.50;1.10;;;9.00;94.10;;;;;;5077062;28;20949;-78
2022/03/30 03:16:00;;;;;;;1.50;1.10;;;9.00;94.30;;;;;;5073712;28;20457;-77
2022/03/30 03:18:27;;;;;;;1.90;1.80;;;9.00;94.50;;;;;;5079093;28;20476;-77
2022/03/30 03:20:55;;;;;;;1.50;1.20;;;9.00;94.80;;;;;;5071854;28;20461;-77
2022/03/30 03:23:22;;;;;;;1.50;1.20;;;9.10;94.70;;;;;;5082177;28;20918;-77
2022/03/30 03:25:49;;;;;;;1.50;1.10;;;9.00;94.30;;;;;;5086736;28;20472;-77
2022/03/30 03:28:16;;;;;;;1.50;1.20;;;9.00;93.90;;;;;;5089438;28;20476;-78
2022/03/30 03:30:43;;;;;;;1.60;1.40;;;9.00;94.20;;;;;;5071896;28;20461;-77
2022/03/30 03:33:11;;;;;;;1.50;1.10;;;8.90;93.90;;;;;;5091076;28;20464;-77
2022/03/30 03:35:38;;;;;;;1.50;1.20;;;8.90;94.10;;;;;;5091510;28;20452;-77
2022/03/30 03:38:08;;;;;;;1.50;1.20;;;8.90;93.90;;;;;;5089320;28;21082;-77
2022/03/30 03:40:35;;;;;;;1.50;1.20;;;8.90;93.80;;;;;;5070719;28;20465;-77
2022/03/30 03:43:04;;;;;;;1.50;1.20;;;8.90;94.40;;;;;;5079089;28;20457;-77
2022/03/30 03:45:31;;;;;;;1.50;1.20;;;8.90;94.50;;;;;;5078824;28;20599;-77
2022/03/30 03:47:59;;;;;;;1.50;1.10;;;8.80;94.30;;;;;;5080040;28;20476;-78
2022/03/30 03:50:27;;;;;;;1.50;1.20;;;8.80;94.30;;;;;;5072236;28;20481;-78
2022/03/30 03:52:55;;;;;;;1.50;1.20;;;8.80;94.00;;;;;;5077720;28;20492;-78
2022/03/30 03:55:23;;;;;;;1.50;1.20;;;8.90;93.90;;;;;;5076419;28;20460;-78
2022/03/30 03:57:50;;;;;;;1.50;1.10;;;8.80;94.10;;;;;;5078046;28;20469;-78
2022/03/30 04:00:18;;;;;;;1.50;1.20;;;8.80;94.40;;;;;;5072596;28;20544;-78
2022/03/30 04:02:45;;;;;;;1.50;1.10;;;8.80;94.50;;;;;;5081046;28;21027;-78
2022/03/30 04:05:13;;;;;;;1.50;1.20;;;8.80;94.30;;;;;;5095201;28;20461;-78
2022/03/30 04:07:41;;;;;;;1.50;1.20;;;8.70;94.40;;;;;;5083799;28;20464;-78
2022/03/30 04:10:09;;;;;;;1.50;1.20;;;8.70;94.80;;;;;;5075840;28;20485;-77
2022/03/30 04:12:37;;;;;;;1.50;1.10;;;8.70;94.80;;;;;;5090690;28;20971;-78
2022/03/30 04:15:05;;;;;;;1.50;1.10;;;8.60;94.90;;;;;;5086987;28;20901;-77
2022/03/30 04:17:33;;;;;;;1.50;1.17;;;8.60;95.20;;;;;;5084750;28;20469;-79
2022/03/30 04:20:00;;;;;;;1.50;1.20;;;8.60;95.20;;;;;;5084512;28;20519;-79
2022/03/30 04:22:27;;;;;;;1.50;1.20;;;8.60;95.50;;;;;;5087281;28;20471;-79
2022/03/30 04:24:53;;;;;;;1.50;1.20;;;8.50;95.50;;;;;;5081024;28;20536;-77
2022/03/30 04:27:20;;;;;;;1.60;1.30;;;8.50;95.60;;;;;;5091809;28;20460;-78
2022/03/30 04:29:48;;;;;;;1.50;1.20;;;8.40;95.60;;;;;;5089752;28;21013;-79
2022/03/30 04:32:16;;;;;;;1.50;1.20;;;8.40;95.80;;;;;;5084835;28;20457;-77
2022/03/30 04:34:43;;;;;;;1.50;1.20;;;8.40;95.60;;;;;;5083612;28;20460;-77
2022/03/30 04:37:09;;;;;;;1.50;1.20;;;8.40;95.70;;;;;;5090106;28;20464;-77
2022/03/30 04:39:36;;;;;;;1.50;1.20;;;8.30;95.80;;;;;;5076022;28;20479;-77
2022/03/30 04:42:04;;;;;;;1.50;1.20;;;8.30;95.80;;;;;;5085068;28;20461;-78
2022/03/30 04:44:30;;;;;;;1.53;1.20;;;8.30;95.70;;;;;;5071016;28;20484;-78
2022/03/30 04:47:00;;;;;;;1.50;1.20;;;8.30;95.70;;;;;;5075066;28;20465;-77
2022/03/30 04:49:26;;;;;;;1.50;1.10;;;8.20;95.90;;;;;;5075003;28;20489;-78
2022/03/30 04:51:53;;;;;;;1.50;1.20;;;8.20;96.10;;;;;;5072682;28;20468;-77
2022/03/30 04:54:20;;;;;;;1.50;1.20;;;8.20;96.10;;;;;;5079718;28;20467;-77
2022/03/30 04:56:50;;;;;;;1.60;1.40;;;8.20;96.30;;;;;;5084928;28;20463;-79
2022/03/30 04:59:17;;;;;;;1.50;1.20;;;8.20;96.40;;;;;;5084443;28;20757;-79
2022/03/30 05:01:44;;;;;;;1.50;1.20;;;8.10;96.60;;;;;;5094642;28;20869;-76
2022/03/30 05:04:12;;;;;;;1.53;1.23;;;8.10;96.90;;;;;;5085181;28;20457;-79
2022/03/30 05:06:38;;;;;;;1.60;1.30;;;8.00;97.10;;;;;;5100273;28;20481;-78
2022/03/30 05:09:05;;;;;;;1.50;1.20;;;8.00;97.20;;;;;;5075413;28;20520;-78
2022/03/30 05:11:32;;;;;;;1.50;1.10;;;8.00;97.10;;;;;;5074873;28;20472;-79
2022/03/30 05:13:59;;;;;;;1.50;1.20;;;8.00;97.30;;;;;;5072254;28;20464;-78
2022/03/30 05:16:27;;;;;;;1.60;1.40;;;8.00;97.20;;;;;;5082915;28;20459;-78
2022/03/30 05:18:54;;;;;;;1.50;1.20;;;7.90;97.40;;;;;;5081563;28;20477;-80
2022/03/30 05:21:22;;;;;;;2.37;2.17;;;7.90;97.40;;;;;;5081520;28;20843;-78
2022/03/30 05:23:49;;;;;;;1.50;1.20;;;7.90;97.50;;;;;;5073530;28;20465;-78
2022/03/30 05:26:16;;;;;;;1.50;1.20;;;7.90;97.50;;;;;;5076287;28;20565;-77
2022/03/30 05:28:43;;;;;;;1.53;1.20;;;7.90;97.40;;;;;;5072054;28;20569;-78
2022/03/30 05:31:10;;;;;;;1.50;1.10;;;7.90;97.40;;;;;;5075883;28;21156;-77
2022/03/30 05:33:37;;;;;;;1.50;1.20;;;7.90;97.30;;;;;;5075958;28;20557;-76
2022/03/30 05:36:04;;;;;;;1.50;1.20;;;7.90;97.10;;;;;;5091287;28;20455;-74
2022/03/30 05:38:32;;;;;;;1.60;1.30;;;7.90;97.50;;;;;;5079117;28;20904;-74
2022/03/30 05:40:59;;;;;;;1.50;1.20;;;7.90;97.60;;;;;;5069312;28;20485;-75
2022/03/30 05:43:26;;;;;;;1.50;1.20;;;7.90;97.70;;;;;;5078084;28;20461;-75
2022/03/30 05:45:53;;;;;;;1.50;1.23;;;7.90;97.40;;;;;;5069489;28;20468;-75
2022/03/30 05:48:20;;;;;;;1.50;1.20;;;7.90;98.00;;;;;;5070233;28;20866;-74
2022/03/30 05:50:47;;;;;;;1.50;1.20;;;7.80;98.00;;;;;;5075232;28;20510;-75
2022/03/30 05:53:14;;;;;;;1.50;1.10;;;7.80;98.20;;;;;;5078985;28;20854;-75
2022/03/30 05:55:45;;;;;;;1.50;1.20;;;7.80;98.00;;;;;;5082377;28;20463;-74
2022/03/30 05:58:12;;;;;;;1.50;1.20;;;7.80;98.00;;;;;;5085772;28;20895;-75
2022/03/30 06:00:39;;;;;;;1.50;1.20;;;7.80;98.20;;;;;;5073786;28;20468;-75
2022/03/30 06:03:06;;;;;;;1.50;1.20;;;7.80;98.20;;;;;;5084807;28;20557;-75
2022/03/30 06:05:33;;;;;;;1.50;1.20;;;7.80;98.20;;;;;;5092286;28;20491;-75
2022/03/30 06:08:00;;;;;;;1.50;1.20;;;7.80;98.20;;;;;;5081928;28;20773;-75
2022/03/30 06:10:28;;;;;;;1.50;1.20;;;7.80;98.20;;;;;;5078032;28;20607;-75
2022/03/30 06:12:57;;;;;;;1.60;1.33;;;7.80;98.20;;;;;;5084018;28;20506;-75
2022/03/30 06:15:24;;;;;;;1.50;1.20;;;7.90;98.20;;;;;;5079343;28;20468;-75
2022/03/30 06:17:52;;;;;;;1.50;1.20;;;7.90;98.10;;;;;;5071582;28;20496;-76
2022/03/30 06:20:19;;;;;;;1.50;1.10;;;7.90;97.90;;;;;;5080793;28;20618;-76
2022/03/30 06:22:46;;;;;;;1.50;1.20;;;8.00;98.00;;;;;;5075841;28;20556;-74
2022/03/30 06:25:12;;;;;;;1.50;1.30;;;8.00;97.90;;;;;;5071146;28;20460;-74
2022/03/30 06:27:41;;;;;;;1.50;1.20;;;8.10;98.00;;;;;;5078240;28;20458;-74
2022/03/30 06:30:10;;;;;;;1.50;1.10;;;8.20;97.70;;;;;;5073918;28;20488;-74
2022/03/30 06:32:37;;;;;;;1.50;1.13;;;8.30;97.50;;;;;;5073480;28;20457;-75
2022/03/30 06:35:05;;;;;;;1.50;1.20;;;8.30;97.60;;;;;;5083305;28;20455;-75
2022/03/30 06:37:32;;;;;;;1.50;1.20;;;8.40;97.40;;;;;;5082664;28;20460;-74
2022/03/30 06:39:59;;;;;;;1.50;1.20;;;8.50;97.00;;;;;;5073875;28;20473;-74
2022/03/30 06:42:26;;;;;;;1.50;1.10;;;8.60;97.50;;;;;;5070674;28;20885;-74
2022/03/30 06:44:53;;;;;;;1.57;1.30;;;8.80;96.80;;;;;;5071318;28;20461;-77
2022/03/30 06:47:21;;;;;;;1.50;1.20;;;9.00;96.80;;;;;;5074707;28;20458;-76
2022/03/30 06:49:48;;;;;;;1.50;1.20;;;9.10;96.10;;;;;;5067749;28;20568;-76
2022/03/30 06:52:15;;;;;;;1.50;1.13;;;9.30;95.20;;;;;;5074179;28;20883;-75
2022/03/30 06:54:41;;;;;;;1.50;1.20;;;9.30;94.80;;;;;;5073271;28;20571;-75
2022/03/30 06:57:08;;;;;;;1.50;1.10;;;9.40;94.90;;;;;;5078711;28;20838;-75
2022/03/30 06:59:35;;;;;;;1.50;1.10;;;9.40;94.60;;;;;;5075548;28;20481;-74
2022/03/30 07:02:02;;;;;;;1.50;1.20;;;9.50;94.20;;;;;;5072693;28;20515;-74
2022/03/30 07:04:31;;;;;;;1.50;1.20;;;9.50;94.00;;;;;;5084841;28;20500;-74
2022/03/30 07:12:26;;;;;;;1.50;1.20;;;9.60;94.00;;;;;;5081975;28;20500;-76
2022/03/30 07:14:53;;;;;;;1.50;1.20;;;9.60;93.40;;;;;;5076007;28;20548;-75
2022/03/30 07:17:20;;;;;;;1.50;1.10;;;9.60;93.40;;;;;;5081927;28;20492;-75
2022/03/30 07:19:48;;;;;;;1.50;1.10;;;9.70;93.90;;;;;;5077964;28;20867;-75
2022/03/30 07:22:15;;;;;;;1.50;1.10;;;9.70;93.50;;;;;;5076628;28;20731;-76
2022/03/30 07:24:42;;;;;;;1.50;1.20;;;9.80;93.60;;;;;;5065853;28;20457;-76
2022/03/30 07:27:09;;;;;;;1.50;1.10;;;9.90;92.90;;;;;;5079241;28;20640;-77
2022/03/30 07:29:36;;;;;;;1.50;1.07;;;10.00;92.90;;;;;;5075253;28;20488;-76
2022/03/30 07:32:04;;;;;;;1.50;1.20;;;10.00;92.30;;;;;;5070688;28;20465;-76
2022/03/30 07:34:31;;;;;;;1.50;1.10;;;10.10;92.00;;;;;;5083502;28;20463;-76
2022/03/30 07:36:59;;;;;;;1.50;1.10;;;10.10;92.20;;;;;;5094072;28;20669;-76
2022/03/30 07:39:25;;;;;;;1.50;1.30;;;10.20;92.20;;;;;;5081022;28;20484;-72
2022/03/30 07:41:52;;;;;;;1.70;1.10;;;10.20;91.80;;;;;;5078187;28;20468;-76
2022/03/30 07:44:19;;;;;;;1.50;1.00;;;10.30;91.80;;;;;;5085498;28;20457;-76
2022/03/30 07:46:48;;;;;;;1.50;1.10;;;10.40;91.40;;;;;;5072024;28;20461;-76
2022/03/30 07:49:15;;;;;;;1.50;1.20;;;10.50;91.00;;;;;;5079647;28;20552;-76
2022/03/30 07:51:42;;;;;;;1.50;1.13;;;10.50;90.60;;;;;;5075629;28;20480;-74
2022/03/30 07:54:10;;;;;;;1.50;1.10;;;10.50;90.40;;;;;;5081251;28;20472;-76
2022/03/30 07:56:38;;;;;;;1.50;1.00;;;10.50;90.50;;;;;;5081775;28;20465;-76
2022/03/30 07:59:04;;;;;;;1.50;1.10;;;10.50;90.70;;;;;;5081134;28;20488;-76
2022/03/30 08:01:31;;;;;;;1.50;1.10;;;10.60;90.20;;;;;;5073064;28;20478;-75
2022/03/30 08:03:58;;;;;;;1.50;1.00;;;10.60;89.90;;;;;;5095533;28;20464;-76
2022/03/30 08:06:26;;;;;;;1.50;1.10;;;10.50;89.70;;;;;;5089783;28;20472;-76
2022/03/30 08:08:53;;;;;;;1.50;1.00;;;10.50;90.20;;;;;;5070876;28;20477;-76
2022/03/30 08:11:22;;;;;;;1.50;1.00;;;10.60;90.30;;;;;;5079333;28;20491;-76
2022/03/30 08:13:48;;;;;;;1.50;1.20;;;10.70;90.40;;;;;;5078203;28;20465;-76
2022/03/30 08:16:15;;;;;;;1.50;1.10;;;10.80;89.50;;;;;;5083357;28;21054;-75
2022/03/30 08:18:42;;;;;;;1.50;1.10;;;10.80;89.70;;;;;;5080061;28;20489;-75
2022/03/30 08:23:54;;;;;;;1.50;1.10;;;11.00;89.30;;;;;;5072444;28;20444;-75
2022/03/30 08:26:23;;;;;;;1.50;1.00;;;11.20;88.50;;;;;;5080852;28;20460;-75
2022/03/30 08:28:50;;;;;;;1.50;1.00;;;11.30;87.90;;;;;;5083455;28;20484;-76
2022/03/30 08:31:16;;;;;;;1.50;1.00;;;11.40;87.30;;;;;;5082409;28;20484;-75
2022/03/30 08:33:43;;;;;;;1.50;1.00;;;11.50;86.80;;;;;;5077909;28;20834;-76
2022/03/30 08:36:10;;;;;;;1.50;1.10;;;11.50;86.10;;;;;;5097079;28;20475;-76
2022/03/30 08:38:37;;;;;;;1.50;1.10;;;11.60;86.70;;;;;;5078565;28;20851;-76
2022/03/30 08:41:04;;;;;;;3.40;1.53;;;11.70;85.80;;;;;;5074843;28;20897;-76
2022/03/30 08:43:33;;;;;;;1.50;1.10;;;11.80;85.30;;;;;;5073870;28;20460;-76
2022/03/30 08:46:02;;;;;;;1.50;1.00;;;11.90;84.80;;;;;;5082645;28;20973;-76
2022/03/30 08:48:29;;;;;;;1.50;1.00;;;12.00;85.00;;;;;;5073603;28;20844;-76
2022/03/30 08:53:26;;;;;;;1.50;1.00;;;12.50;84.20;;;;;;5068236;28;20505;-78
2022/03/30 08:55:54;;;;;;;1.77;1.67;;;12.80;83.50;;;;;;5067969;28;20460;-77
2022/03/30 08:58:20;;;;;;;1.50;1.00;;;13.00;83.20;;;;;;5068703;28;20461;-78
2022/03/30 09:00:49;;;;;;;1.50;1.10;;;13.20;81.90;;;;;;5057253;28;20482;-80
2022/03/30 09:03:17;;;;;;;1.50;1.00;;;13.40;81.30;;;;;;5049251;28;20524;-78
2022/03/30 09:05:44;;;;;;;1.50;1.00;;;13.50;80.40;;;;;;5048200;28;20856;-79
2022/03/30 09:08:14;;;;;;;1.50;1.00;;;13.50;79.50;;;;;;5047517;28;20733;-78
2022/03/30 09:10:42;;;;;;;1.50;1.27;;;13.50;81.00;;;;;;5048157;28;21151;-78
2022/03/30 09:13:10;;;;;;;1.50;1.00;;;13.70;82.00;;;;;;5048714;28;20559;-78
2022/03/30 09:15:39;;;;;;;1.50;1.10;;;14.00;80.50;;;;;;5048588;28;20613;-78
2022/03/30 09:18:09;;;;;;;1.50;1.00;;;14.10;79.40;;;;;;5047452;28;20474;-78
2022/03/30 09:20:37;;;;;;;1.50;1.00;;;14.10;78.50;;;;;;5044618;28;20505;-77
2022/03/30 09:23:05;;;;;;;1.50;1.00;;;14.10;78.20;;;;;;5048033;28;20459;-79
2022/03/30 09:25:32;;;;;;;1.50;1.00;;;14.20;77.90;;;;;;5048166;28;20458;-78
2022/03/30 09:28:01;;;;;;;1.50;1.00;;;14.30;77.30;;;;;;5049674;28;20462;-77
2022/03/30 09:30:29;;;;;;;1.50;1.00;;;14.40;77.80;;;;;;5046616;28;20486;-79
2022/03/30 09:32:58;;;;;;;1.50;1.00;;;14.40;76.70;;;;;;5047725;28;20476;-77
2022/03/30 09:35:30;;;;;;;1.50;1.00;;;14.40;75.90;;;;;;5046902;28;20989;-78
2022/03/30 09:38:09;;;;;;;1.50;1.00;;;14.20;76.50;;;;;;5047936;28;21059;-78
2022/03/30 09:40:38;;;;;;;1.50;1.10;;;14.20;76.50;;;;;;5047105;28;20506;-77
2022/03/30 09:43:13;;;;;;;1.60;1.37;;;14.30;76.30;;;;;;5048796;28;20466;-77
2022/03/30 09:45:41;;;;;;;1.50;0.90;;;14.40;76.00;;;;;;5047132;28;20466;-77
2022/03/30 09:48:12;;;;;;;1.50;1.00;;;14.60;76.00;;;;;;5047419;28;20965;-78
2022/03/30 09:50:44;;;;;;;1.50;1.20;;;14.50;75.00;;;;;;5047208;28;20493;-77
2022/03/30 09:53:13;;;;;;;1.50;0.90;;;14.60;74.80;;;;;;5045935;28;20489;-79
2022/03/30 09:55:52;;;;;;;1.50;1.00;;;14.50;75.70;;;;;;5048595;28;20996;-78
2022/03/30 09:58:20;;;;;;;1.47;1.00;;;14.80;75.20;;;;;;5047692;28;20763;-78
2022/03/30 10:01:08;;;;;;;1.50;0.90;;;15.00;75.30;;;;;;5048266;28;20482;-78
2022/03/30 10:03:41;;;;;;;1.50;0.90;;;15.20;73.60;;;;;;5046914;28;20473;-78
2022/03/30 10:06:10;;;;;;;1.50;0.90;;;15.30;74.70;;;;;;5037823;28;20483;-80
2022/03/30 10:08:37;;;;;;;1.40;0.90;;;15.30;73.20;;;;;;5059737;28;20685;-80
2022/03/30 10:11:04;;;;;;;1.50;1.10;;;15.30;74.40;;;;;;5051208;28;20486;-80
2022/03/30 10:13:31;;;;;;;1.50;1.10;;;15.40;74.50;;;;;;5052489;28;20562;-77
2022/03/30 10:15:59;;;;;;;1.50;0.90;;;15.50;74.20;;;;;;5054402;28;20852;-80
2022/03/30 10:18:26;;;;;;;1.43;0.90;;;15.70;73.40;;;;;;5051978;28;20504;-80
2022/03/30 10:21:06;;;;;;;1.50;0.97;;;15.80;73.90;;;;;;5056573;28;20482;-80
2022/03/30 10:23:41;;;;;;;1.50;1.00;;;15.90;73.20;;;;;;5050047;28;20458;-79
2022/03/30 10:26:15;;;;;;;1.50;1.00;;;16.00;73.90;;;;;;5053373;28;20462;-79
2022/03/30 10:28:55;;;;;;;1.50;1.00;;;16.10;72.40;;;;;;5051796;28;20469;-79
2022/03/30 10:31:22;;;;;;;1.50;1.00;;;16.10;72.10;;;;;;5053019;28;20490;-80
2022/03/30 10:33:52;;;;;;;1.60;1.10;;;16.20;71.40;;;;;;5048016;28;20494;-80
2022/03/30 10:36:25;;;;;;;1.50;1.00;;;16.30;71.90;;;;;;5048110;28;20466;-79
2022/03/30 10:39:11;;;;;;;1.50;0.90;;;16.40;70.80;;;;;;5048833;28;20466;-79
2022/03/30 10:41:50;;;;;;;1.50;1.00;;;16.50;72.30;;;;;;5049020;28;20473;-80
2022/03/30 10:44:37;;;;;;;1.50;0.90;;;16.70;71.60;;;;;;5054810;28;20549;-80
2022/03/30 10:47:08;;;;;;;1.50;0.90;;;16.90;70.60;;;;;;5047736;28;20644;-80
2022/03/30 10:49:43;;;;;;;1.50;1.10;;;17.00;68.80;;;;;;5061635;28;20489;-80
2022/03/30 10:52:31;;;;;;;1.50;1.00;;;17.00;69.40;;;;;;5054554;28;20489;-80
2022/03/30 10:55:38;;;;;;;1.47;1.00;;;16.90;71.00;;;;;;5052204;28;20898;-80
2022/03/30 10:58:06;;;;;;;1.47;0.90;;;17.00;71.30;;;;;;5052999;28;20462;-80
2022/03/30 11:00:36;;;;;;;1.50;0.90;;;17.20;70.90;;;;;;5052183;28;20484;-79
2022/03/30 11:03:09;;;;;;;1.50;0.90;;;17.30;70.50;;;;;;5048794;28;20458;-79
2022/03/30 11:05:37;;;;;;;1.50;0.90;;;17.30;69.80;;;;;;5040195;28;20518;-80
2022/03/30 11:08:06;;;;;;;1.50;1.10;;;17.30;69.40;;;;;;5049005;28;20461;-77
2022/03/30 11:10:47;;;;;;;1.50;0.90;;;17.30;70.00;;;;;;5047510;28;21021;-77
2022/03/30 11:13:23;;;;;;;1.50;0.90;;;17.50;69.60;;;;;;5049249;28;20512;-77
2022/03/30 11:16:12;;;;;;;1.50;1.00;;;17.60;69.50;;;;;;5043502;28;20795;-77
2022/03/30 11:19:02;;;;;;;1.50;0.90;;;17.80;69.60;;;;;;5056594;28;21040;-77
2022/03/30 11:21:31;;;;;;;1.43;0.90;;;17.90;69.70;;;;;;5045127;28;20473;-78
2022/03/30 11:24:04;;;;;;;1.47;0.90;;;18.00;69.00;;;;;;5057637;28;20457;-78
2022/03/30 11:27:22;;;;;;;1.50;0.90;;;18.00;68.20;;;;;;5051325;28;20929;-77
2022/03/30 11:30:03;;;;;;;1.60;1.27;;;17.90;69.50;;;;;;5032181;28;20872;-79
2022/03/30 11:32:59;;;;;;;1.50;0.90;;;18.00;69.20;;;;;;5051511;28;20486;-77
2022/03/30 11:35:29;;;;;;;1.47;0.90;;;18.10;68.90;;;;;;5045393;28;20465;-79
2022/03/30 11:38:07;;;;;;;1.47;0.90;;;18.10;68.00;;;;;;5055174;28;21058;-79
2022/03/30 11:40:40;;;;;;;1.50;0.90;;;18.20;68.60;;;;;;5053996;28;20485;-79
2022/03/30 11:43:08;;;;;;;1.63;1.40;;;18.10;67.10;;;;;;5058101;28;20469;-78
2022/03/30 11:45:37;;;;;;;1.50;0.90;;;18.10;68.30;;;;;;5054053;28;20484;-78
2022/03/30 11:48:07;;;;;;;1.50;1.00;;;18.10;67.50;;;;;;5042061;28;20481;-78
2022/03/30 11:50:36;;;;;;;1.50;0.90;;;18.20;67.80;;;;;;5052326;28;20498;-78
2022/03/30 11:53:05;;;;;;;1.50;0.90;;;18.20;67.20;;;;;;5049912;28;20462;-77
2022/03/30 11:55:35;;;;;;;1.50;0.90;;;18.30;67.10;;;;;;5047684;28;20481;-79
2022/03/30 11:58:03;;;;;;;1.50;0.90;;;18.30;67.40;;;;;;5048062;28;20899;-79
2022/03/30 12:00:32;;;;;;;1.43;0.90;;;18.30;67.00;;;;;;5051264;28;20577;-80
2022/03/30 12:03:01;;;;;;;1.50;0.90;;;18.20;67.10;;;;;;5050476;28;20462;-80
2022/03/30 12:05:28;;;;;;;1.50;0.90;;;18.10;66.30;;;;;;5050783;28;20465;-80
2022/03/30 12:07:57;;;;;;;1.60;1.43;;;18.10;67.60;;;;;;5050398;28;20474;-80
2022/03/30 12:10:28;;;;;;;1.50;1.00;;;18.20;66.80;;;;;;5044200;28;20932;-80
2022/03/30 12:12:55;;;;;;;1.50;0.90;;;18.00;66.40;;;;;;5042163;28;20493;-79
2022/03/30 12:15:22;;;;;;;1.47;0.90;;;18.00;67.60;;;;;;5049601;28;20466;-80
2022/03/30 12:17:54;;;;;;;1.50;1.00;;;18.10;66.80;;;;;;5045903;28;20997;-79
2022/03/30 12:20:25;;;;;;;1.50;0.90;;;18.20;66.90;;;;;;5045382;28;20490;-81
2022/03/30 12:22:58;;;;;;;1.50;1.00;;;18.30;65.60;;;;;;5048342;28;20892;-79
2022/03/30 12:25:28;;;;;;;1.47;0.90;;;18.40;65.50;;;;;;5049604;28;20466;-81
2022/03/30 12:27:54;;;;;;;1.57;1.20;;;18.40;64.90;;;;;;5054375;28;20470;-81
2022/03/30 12:30:22;;;;;;;1.50;0.90;;;18.30;64.80;;;;;;5052641;28;20880;-81
2022/03/30 12:32:50;;;;;;;3.60;3.30;;;18.40;65.90;;;;;;5046043;28;21091;-80
2022/03/30 12:35:18;;;;;;;1.50;0.90;;;18.40;65.60;;;;;;5049458;28;20545;-80
2022/03/30 12:37:49;;;;;;;1.50;0.90;;;18.40;65.10;;;;;;5050827;28;20465;-81
2022/03/30 12:40:20;;;;;;;1.50;0.90;;;18.40;63.60;;;;;;5049195;28;20580;-78
2022/03/30 12:42:47;;;;;;;1.80;1.43;;;18.50;65.40;;;;;;5046508;28;20461;-78
2022/03/30 12:45:16;;;;;;;1.50;0.90;;;18.70;66.00;;;;;;5048053;28;20552;-78
2022/03/30 12:47:50;;;;;;;1.50;0.90;;;18.80;64.80;;;;;;5049896;28;20465;-80
2022/03/30 12:50:19;;;;;;;1.50;0.90;;;18.80;62.80;;;;;;5054179;28;20492;-81
2022/03/30 12:52:49;;;;;;;1.50;0.90;;;18.60;64.60;;;;;;5051224;28;20486;-80
2022/03/30 12:55:20;;;;;;;1.47;0.90;;;18.70;63.80;;;;;;5054636;28;20477;-77
2022/03/30 12:57:53;;;;;;;1.47;0.90;;;18.80;64.70;;;;;;5053870;28;20461;-80
2022/03/30 13:00:22;;;;;;;1.47;0.90;;;18.90;63.80;;;;;;5046698;28;21162;-78
2022/03/30 13:03:01;;;;;;;1.50;0.90;;;19.00;64.60;;;;;;5054008;28;20450;-80
2022/03/30 13:05:29;;;;;;;1.50;0.90;;;18.90;64.80;;;;;;5051152;28;20472;-77
2022/03/30 13:07:57;;;;;;;1.50;0.90;;;18.90;64.00;;;;;;5053626;28;20585;-80
2022/03/30 13:10:23;;;;;;;1.50;0.90;;;18.90;63.80;;;;;;5047044;28;20486;-81
2022/03/30 13:12:55;;;;;;;1.50;1.00;;;19.00;63.80;;;;;;5053508;28;20478;-80